sensor_id;sensor_type;location;lat;lon;timestamp;temperature;humidity
29363;DHT22;16349;53.672;10.014;2023-12-22T00:02:20;6.10;99.90
29363;DHT22;16349;53.672;10.014;2023-12-22T00:04:49;6.00;99.90
29363;DHT22;16349;53.672;10.014;2023-12-22T00:07:17;6.00;99.90
29363;DHT22;16349;53.672;10.014;2023-12-22T00:09:46;6.00;99.90
29363;DHT22;16349;53.672;10.014;2023-12-22T00:12:13;6.00;99.90
29363;DHT22;16349;53.672;10.014;2023-12-22T00:14:40;6.00;99.90
29363;DHT22;16349;53.672;10.014;2023-12-22T00:17:07;6.00;99.90
29363;DHT22;16349;53.672;10.014;2023-12-22T00:19:33;6.00;99.90
29363;DHT22;16349;53.672;10.014;2023-12-22T00:22:00;5.90;99.90
29363;DHT22;16349;53.672;10.014;2023-12-22T00:24:30;6.00;99.90
29363;DHT22;16349;53.672;10.014;2023-12-22T00:26:57;5.90;99.90
29363;DHT22;16349;53.672;10.014;2023-12-22T00:29:24;5.90;99.90
29363;DHT22;16349;53.672;10.014;2023-12-22T00:31:50;5.90;99.90
29363;DHT22;16349;53.672;10.014;2023-12-22T00:34:17;5.90;99.90
29363;DHT22;16349;53.672;10.014;2023-12-22T00:36:45;5.90;99.90
29363;DHT22;16349;53.672;10.014;2023-12-22T00:39:11;5.90;99.90
29363;DHT22;16349;53.672;10.014;2023-12-22T00:41:40;5.90;99.90
29363;DHT22;16349;53.672;10.014;2023-12-22T00:44:06;5.90;99.90
29363;DHT22;16349;53.672;10.014;2023-12-22T00:46:33;6.00;99.90
29363;DHT22;16349;53.672;10.014;2023-12-22T00:49:00;6.00;99.90
29363;DHT22;16349;53.672;10.014;2023-12-22T00:51:27;6.00;99.90
29363;DHT22;16349;53.672;10.014;2023-12-22T00:53:54;6.00;99.90
29363;DHT22;16349;53.672;10.014;2023-12-22T00:56:20;6.00;99.90
29363;DHT22;16349;53.672;10.014;2023-12-22T00:58:49;6.00;99.90
29363;DHT22;16349;53.672;10.014;2023-12-22T01:01:15;6.10;99.90
29363;DHT22;16349;53.672;10.014;2023-12-22T01:03:42;6.10;99.90
29363;DHT22;16349;53.672;10.014;2023-12-22T01:06:09;6.10;99.90
29363;DHT22;16349;53.672;10.014;2023-12-22T01:08:36;6.10;99.90
29363;DHT22;16349;53.672;10.014;2023-12-22T01:11:04;6.00;99.90
29363;DHT22;16349;53.672;10.014;2023-12-22T01:13:30;6.00;99.90
29363;DHT22;16349;53.672;10.014;2023-12-22T01:15:59;6.10;99.90
29363;DHT22;16349;53.672;10.014;2023-12-22T01:18:25;6.00;99.90
29363;DHT22;16349;53.672;10.014;2023-12-22T01:20:55;6.00;99.90
29363;DHT22;16349;53.672;10.014;2023-12-22T01:23:22;6.00;99.90
29363;DHT22;16349;53.672;10.014;2023-12-22T01:25:50;5.90;99.90
29363;DHT22;16349;53.672;10.014;2023-12-22T01:28:17;5.70;99.90
29363;DHT22;16349;53.672;10.014;2023-12-22T01:30:44;5.60;99.90
29363;DHT22;16349;53.672;10.014;2023-12-22T01:33:12;5.40;99.90
29363;DHT22;16349;53.672;10.014;2023-12-22T01:35:40;5.20;99.90
29363;DHT22;16349;53.672;10.014;2023-12-22T01:38:06;5.00;99.90
29363;DHT22;16349;53.672;10.014;2023-12-22T01:40:33;4.80;99.90
29363;DHT22;16349;53.672;10.014;2023-12-22T01:43:01;4.60;99.90
29363;DHT22;16349;53.672;10.014;2023-12-22T01:45:28;4.50;99.90
29363;DHT22;16349;53.672;10.014;2023-12-22T01:47:55;4.40;99.90
29363;DHT22;16349;53.672;10.014;2023-12-22T01:50:24;4.30;99.90
29363;DHT22;16349;53.672;10.014;2023-12-22T01:52:51;4.30;99.90
29363;DHT22;16349;53.672;10.014;2023-12-22T01:55:18;4.30;99.90
29363;DHT22;16349;53.672;10.014;2023-12-22T01:57:45;4.30;99.90
29363;DHT22;16349;53.672;10.014;2023-12-22T02:00:13;4.30;99.90
29363;DHT22;16349;53.672;10.014;2023-12-22T02:02:41;4.30;99.90
29363;DHT22;16349;53.672;10.014;2023-12-22T02:05:09;4.30;99.90
29363;DHT22;16349;53.672;10.014;2023-12-22T02:07:39;4.20;99.90
29363;DHT22;16349;53.672;10.014;2023-12-22T02:10:08;4.20;99.90
29363;DHT22;16349;53.672;10.014;2023-12-22T02:12:35;4.10;99.90
29363;DHT22;16349;53.672;10.014;2023-12-22T02:15:02;4.10;99.90
29363;DHT22;16349;53.672;10.014;2023-12-22T02:17:36;4.10;99.90
29363;DHT22;16349;53.672;10.014;2023-12-22T02:20:05;4.10;99.90
29363;DHT22;16349;53.672;10.014;2023-12-22T02:22:34;4.00;99.90
29363;DHT22;16349;53.672;10.014;2023-12-22T02:25:01;4.10;99.90
29363;DHT22;16349;53.672;10.014;2023-12-22T02:27:33;4.10;99.90
29363;DHT22;16349;53.672;10.014;2023-12-22T02:30:05;4.10;99.90
29363;DHT22;16349;53.672;10.014;2023-12-22T02:32:35;4.20;99.90
29363;DHT22;16349;53.672;10.014;2023-12-22T02:35:06;4.30;99.90
29363;DHT22;16349;53.672;10.014;2023-12-22T02:37:36;4.30;99.90
29363;DHT22;16349;53.672;10.014;2023-12-22T02:40:04;4.30;99.90
29363;DHT22;16349;53.672;10.014;2023-12-22T02:42:31;4.40;99.90
29363;DHT22;16349;53.672;10.014;2023-12-22T02:44:59;4.30;99.90
29363;DHT22;16349;53.672;10.014;2023-12-22T02:47:26;4.30;99.90
29363;DHT22;16349;53.672;10.014;2023-12-22T02:49:54;4.30;99.90
29363;DHT22;16349;53.672;10.014;2023-12-22T02:52:21;4.30;99.90
29363;DHT22;16349;53.672;10.014;2023-12-22T02:54:49;4.30;99.90
29363;DHT22;16349;53.672;10.014;2023-12-22T02:57:16;4.30;99.90
29363;DHT22;16349;53.672;10.014;2023-12-22T02:59:43;4.30;99.90
29363;DHT22;16349;53.672;10.014;2023-12-22T03:02:10;4.40;99.90
29363;DHT22;16349;53.672;10.014;2023-12-22T03:04:37;4.40;99.90
29363;DHT22;16349;53.672;10.014;2023-12-22T03:07:04;4.30;99.90
29363;DHT22;16349;53.672;10.014;2023-12-22T03:09:31;4.30;99.90
29363;DHT22;16349;53.672;10.014;2023-12-22T03:12:01;4.20;99.90
29363;DHT22;16349;53.672;10.014;2023-12-22T03:14:28;4.10;99.90
29363;DHT22;16349;53.672;10.014;2023-12-22T03:16:55;4.00;99.90
29363;DHT22;16349;53.672;10.014;2023-12-22T03:19:22;4.00;99.90
29363;DHT22;16349;53.672;10.014;2023-12-22T03:21:49;3.90;99.90
29363;DHT22;16349;53.672;10.014;2023-12-22T03:24:16;3.80;99.90
29363;DHT22;16349;53.672;10.014;2023-12-22T03:26:44;3.80;99.90
29363;DHT22;16349;53.672;10.014;2023-12-22T03:29:12;3.70;99.90
29363;DHT22;16349;53.672;10.014;2023-12-22T03:31:39;3.80;99.90
29363;DHT22;16349;53.672;10.014;2023-12-22T03:34:06;3.70;99.90
29363;DHT22;16349;53.672;10.014;2023-12-22T03:36:33;3.70;99.90
29363;DHT22;16349;53.672;10.014;2023-12-22T03:39:00;3.70;99.90
29363;DHT22;16349;53.672;10.014;2023-12-22T03:41:27;3.70;99.90
29363;DHT22;16349;53.672;10.014;2023-12-22T03:43:54;3.70;99.90
29363;DHT22;16349;53.672;10.014;2023-12-22T03:46:23;3.70;99.90
29363;DHT22;16349;53.672;10.014;2023-12-22T03:48:50;3.70;99.90
29363;DHT22;16349;53.672;10.014;2023-12-22T03:51:17;3.70;99.90
29363;DHT22;16349;53.672;10.014;2023-12-22T03:53:44;3.70;99.90
29363;DHT22;16349;53.672;10.014;2023-12-22T03:56:10;3.70;99.90
29363;DHT22;16349;53.672;10.014;2023-12-22T03:58:37;3.70;99.90
29363;DHT22;16349;53.672;10.014;2023-12-22T04:01:04;3.70;99.90
29363;DHT22;16349;53.672;10.014;2023-12-22T04:03:34;3.70;99.90
29363;DHT22;16349;53.672;10.014;2023-12-22T04:06:02;3.70;99.90
29363;DHT22;16349;53.672;10.014;2023-12-22T04:08:28;3.70;99.90
29363;DHT22;16349;53.672;10.014;2023-12-22T04:10:55;3.80;99.90
29363;DHT22;16349;53.672;10.014;2023-12-22T04:13:22;3.80;99.90
29363;DHT22;16349;53.672;10.014;2023-12-22T04:15:49;3.90;99.90
29363;DHT22;16349;53.672;10.014;2023-12-22T04:18:16;4.00;99.90
29363;DHT22;16349;53.672;10.014;2023-12-22T04:20:44;4.00;99.90
29363;DHT22;16349;53.672;10.014;2023-12-22T04:23:10;4.20;99.90
29363;DHT22;16349;53.672;10.014;2023-12-22T04:25:37;4.30;99.90
29363;DHT22;16349;53.672;10.014;2023-12-22T04:28:04;4.50;99.90
29363;DHT22;16349;53.672;10.014;2023-12-22T04:30:30;4.60;99.90
29363;DHT22;16349;53.672;10.014;2023-12-22T04:32:57;4.70;99.90
29363;DHT22;16349;53.672;10.014;2023-12-22T04:35:24;4.70;99.90
29363;DHT22;16349;53.672;10.014;2023-12-22T04:37:52;4.70;99.90
29363;DHT22;16349;53.672;10.014;2023-12-22T04:40:19;4.70;99.90
29363;DHT22;16349;53.672;10.014;2023-12-22T04:42:46;4.80;99.90
29363;DHT22;16349;53.672;10.014;2023-12-22T04:45:13;4.80;99.90
29363;DHT22;16349;53.672;10.014;2023-12-22T04:47:39;4.80;99.90
29363;DHT22;16349;53.672;10.014;2023-12-22T04:50:07;4.80;99.90
29363;DHT22;16349;53.672;10.014;2023-12-22T04:52:34;4.80;99.90
29363;DHT22;16349;53.672;10.014;2023-12-22T04:55:02;4.80;99.90
29363;DHT22;16349;53.672;10.014;2023-12-22T04:57:29;4.80;99.90
29363;DHT22;16349;53.672;10.014;2023-12-22T04:59:56;4.80;99.90
29363;DHT22;16349;53.672;10.014;2023-12-22T05:02:22;4.80;99.90
29363;DHT22;16349;53.672;10.014;2023-12-22T05:04:50;4.80;99.90
29363;DHT22;16349;53.672;10.014;2023-12-22T05:07:16;4.80;99.90
29363;DHT22;16349;53.672;10.014;2023-12-22T05:09:43;4.90;99.90
29363;DHT22;16349;53.672;10.014;2023-12-22T05:12:11;4.90;99.90
29363;DHT22;16349;53.672;10.014;2023-12-22T05:14:38;5.00;99.90
29363;DHT22;16349;53.672;10.014;2023-12-22T05:17:05;5.00;99.90
29363;DHT22;16349;53.672;10.014;2023-12-22T05:19:32;5.10;99.90
29363;DHT22;16349;53.672;10.014;2023-12-22T05:21:59;5.20;99.90
29363;DHT22;16349;53.672;10.014;2023-12-22T05:24:26;5.20;99.90
29363;DHT22;16349;53.672;10.014;2023-12-22T05:26:53;5.20;99.90
29363;DHT22;16349;53.672;10.014;2023-12-22T05:29:21;5.00;99.90
29363;DHT22;16349;53.672;10.014;2023-12-22T05:31:48;4.90;99.90
29363;DHT22;16349;53.672;10.014;2023-12-22T05:34:14;4.80;99.90
29363;DHT22;16349;53.672;10.014;2023-12-22T05:36:41;4.70;99.90
29363;DHT22;16349;53.672;10.014;2023-12-22T05:39:08;4.80;99.90
29363;DHT22;16349;53.672;10.014;2023-12-22T05:41:36;4.50;99.90
29363;DHT22;16349;53.672;10.014;2023-12-22T05:44:03;4.00;99.90
29363;DHT22;16349;53.672;10.014;2023-12-22T05:46:35;3.60;99.90
29363;DHT22;16349;53.672;10.014;2023-12-22T05:49:03;3.30;99.90
29363;DHT22;16349;53.672;10.014;2023-12-22T05:51:36;3.10;99.90
29363;DHT22;16349;53.672;10.014;2023-12-22T05:54:03;3.00;99.90
29363;DHT22;16349;53.672;10.014;2023-12-22T05:56:30;2.80;99.90
29363;DHT22;16349;53.672;10.014;2023-12-22T05:58:58;2.70;99.90
29363;DHT22;16349;53.672;10.014;2023-12-22T06:01:25;2.70;99.90
29363;DHT22;16349;53.672;10.014;2023-12-22T06:03:54;2.70;99.90
29363;DHT22;16349;53.672;10.014;2023-12-22T06:06:21;2.70;99.90
29363;DHT22;16349;53.672;10.014;2023-12-22T06:08:48;2.80;99.90
29363;DHT22;16349;53.672;10.014;2023-12-22T06:11:15;2.80;99.90
29363;DHT22;16349;53.672;10.014;2023-12-22T06:13:42;2.80;99.90
29363;DHT22;16349;53.672;10.014;2023-12-22T06:16:11;2.90;99.90
29363;DHT22;16349;53.672;10.014;2023-12-22T06:18:39;2.90;99.90
29363;DHT22;16349;53.672;10.014;2023-12-22T06:21:08;3.00;99.90
29363;DHT22;16349;53.672;10.014;2023-12-22T06:23:35;3.00;99.90
29363;DHT22;16349;53.672;10.014;2023-12-22T06:26:07;3.00;99.90
29363;DHT22;16349;53.672;10.014;2023-12-22T06:28:34;3.10;99.90
29363;DHT22;16349;53.672;10.014;2023-12-22T06:31:02;3.10;99.90
29363;DHT22;16349;53.672;10.014;2023-12-22T06:33:29;3.30;99.90
29363;DHT22;16349;53.672;10.014;2023-12-22T06:35:56;3.30;99.90
29363;DHT22;16349;53.672;10.014;2023-12-22T06:38:24;3.40;99.90
29363;DHT22;16349;53.672;10.014;2023-12-22T06:40:51;3.40;99.90
29363;DHT22;16349;53.672;10.014;2023-12-22T06:43:17;3.40;99.90
29363;DHT22;16349;53.672;10.014;2023-12-22T06:45:44;3.50;99.90
29363;DHT22;16349;53.672;10.014;2023-12-22T06:48:11;3.50;99.90
29363;DHT22;16349;53.672;10.014;2023-12-22T06:50:38;3.60;99.90
29363;DHT22;16349;53.672;10.014;2023-12-22T06:53:05;3.70;99.90
29363;DHT22;16349;53.672;10.014;2023-12-22T06:55:34;3.80;99.90
29363;DHT22;16349;53.672;10.014;2023-12-22T06:58:01;3.90;99.90
29363;DHT22;16349;53.672;10.014;2023-12-22T07:00:28;3.90;99.90
29363;DHT22;16349;53.672;10.014;2023-12-22T07:02:54;4.00;99.90
29363;DHT22;16349;53.672;10.014;2023-12-22T07:05:33;4.10;99.90
29363;DHT22;16349;53.672;10.014;2023-12-22T07:08:03;4.10;99.90
29363;DHT22;16349;53.672;10.014;2023-12-22T07:10:30;4.20;99.90
29363;DHT22;16349;53.672;10.014;2023-12-22T07:12:58;4.30;99.90
29363;DHT22;16349;53.672;10.014;2023-12-22T07:15:25;4.30;99.90
29363;DHT22;16349;53.672;10.014;2023-12-22T07:17:52;4.30;99.90
29363;DHT22;16349;53.672;10.014;2023-12-22T07:20:19;4.40;99.90
29363;DHT22;16349;53.672;10.014;2023-12-22T07:22:45;4.40;99.90
29363;DHT22;16349;53.672;10.014;2023-12-22T07:25:12;4.30;99.90
29363;DHT22;16349;53.672;10.014;2023-12-22T07:27:39;4.40;99.90
29363;DHT22;16349;53.672;10.014;2023-12-22T07:30:08;4.40;99.90
29363;DHT22;16349;53.672;10.014;2023-12-22T07:32:42;4.40;99.90
29363;DHT22;16349;53.672;10.014;2023-12-22T07:35:09;4.40;99.90
29363;DHT22;16349;53.672;10.014;2023-12-22T07:37:36;4.40;99.90
29363;DHT22;16349;53.672;10.014;2023-12-22T07:40:03;4.40;99.90
29363;DHT22;16349;53.672;10.014;2023-12-22T07:42:30;4.50;99.90
29363;DHT22;16349;53.672;10.014;2023-12-22T07:44:57;4.50;99.90
29363;DHT22;16349;53.672;10.014;2023-12-22T07:47:25;4.60;99.90
29363;DHT22;16349;53.672;10.014;2023-12-22T07:49:53;4.60;99.90
29363;DHT22;16349;53.672;10.014;2023-12-22T07:52:19;4.50;99.90
29363;DHT22;16349;53.672;10.014;2023-12-22T07:54:46;4.50;99.90
29363;DHT22;16349;53.672;10.014;2023-12-22T07:57:13;4.40;99.90
29363;DHT22;16349;53.672;10.014;2023-12-22T07:59:40;4.40;99.90
29363;DHT22;16349;53.672;10.014;2023-12-22T08:02:07;4.30;99.90
29363;DHT22;16349;53.672;10.014;2023-12-22T08:04:35;4.30;99.90
29363;DHT22;16349;53.672;10.014;2023-12-22T08:07:02;4.30;99.90
29363;DHT22;16349;53.672;10.014;2023-12-22T08:09:29;4.30;99.90
29363;DHT22;16349;53.672;10.014;2023-12-22T08:11:56;4.30;99.90
29363;DHT22;16349;53.672;10.014;2023-12-22T08:14:23;4.00;99.90
29363;DHT22;16349;53.672;10.014;2023-12-22T08:16:49;3.60;99.90
29363;DHT22;16349;53.672;10.014;2023-12-22T08:19:16;3.40;99.90
29363;DHT22;16349;53.672;10.014;2023-12-22T08:21:44;3.30;99.90
29363;DHT22;16349;53.672;10.014;2023-12-22T08:24:11;3.30;99.90
29363;DHT22;16349;53.672;10.014;2023-12-22T08:26:38;3.40;99.90
29363;DHT22;16349;53.672;10.014;2023-12-22T08:29:05;3.40;99.90
29363;DHT22;16349;53.672;10.014;2023-12-22T08:31:34;3.40;99.90
29363;DHT22;16349;53.672;10.014;2023-12-22T08:34:00;3.40;99.90
29363;DHT22;16349;53.672;10.014;2023-12-22T08:36:27;3.50;99.90
29363;DHT22;16349;53.672;10.014;2023-12-22T08:38:55;3.50;99.90
29363;DHT22;16349;53.672;10.014;2023-12-22T08:41:22;3.50;99.90
29363;DHT22;16349;53.672;10.014;2023-12-22T08:43:49;3.50;99.90
29363;DHT22;16349;53.672;10.014;2023-12-22T08:46:16;3.60;99.90
29363;DHT22;16349;53.672;10.014;2023-12-22T08:48:44;3.70;99.90
29363;DHT22;16349;53.672;10.014;2023-12-22T08:51:10;3.70;99.90
29363;DHT22;16349;53.672;10.014;2023-12-22T08:53:37;3.80;99.90
29363;DHT22;16349;53.672;10.014;2023-12-22T08:56:06;3.90;99.90
29363;DHT22;16349;53.672;10.014;2023-12-22T08:58:33;4.00;99.90
29363;DHT22;16349;53.672;10.014;2023-12-22T09:01:00;4.10;99.90
29363;DHT22;16349;53.672;10.014;2023-12-22T09:03:27;4.20;99.90
29363;DHT22;16349;53.672;10.014;2023-12-22T09:05:55;4.20;99.90
29363;DHT22;16349;53.672;10.014;2023-12-22T09:08:22;4.30;99.90
29363;DHT22;16349;53.672;10.014;2023-12-22T09:10:49;4.40;99.90
29363;DHT22;16349;53.672;10.014;2023-12-22T09:13:17;4.40;99.90
29363;DHT22;16349;53.672;10.014;2023-12-22T09:15:44;4.50;99.90
29363;DHT22;16349;53.672;10.014;2023-12-22T09:18:12;4.50;99.90
29363;DHT22;16349;53.672;10.014;2023-12-22T09:20:40;4.50;99.90
29363;DHT22;16349;53.672;10.014;2023-12-22T09:23:06;4.50;99.90
29363;DHT22;16349;53.672;10.014;2023-12-22T09:25:35;4.60;99.90
29363;DHT22;16349;53.672;10.014;2023-12-22T09:28:02;4.60;99.90
29363;DHT22;16349;53.672;10.014;2023-12-22T09:30:30;4.60;99.90
29363;DHT22;16349;53.672;10.014;2023-12-22T09:32:57;4.70;99.90
29363;DHT22;16349;53.672;10.014;2023-12-22T09:35:24;4.70;99.90
29363;DHT22;16349;53.672;10.014;2023-12-22T09:37:52;4.80;99.90
29363;DHT22;16349;53.672;10.014;2023-12-22T09:40:19;4.90;99.90
29363;DHT22;16349;53.672;10.014;2023-12-22T09:42:48;5.00;99.90
29363;DHT22;16349;53.672;10.014;2023-12-22T09:45:16;5.00;99.90
29363;DHT22;16349;53.672;10.014;2023-12-22T09:47:46;5.00;99.90
29363;DHT22;16349;53.672;10.014;2023-12-22T09:50:15;5.10;99.90
29363;DHT22;16349;53.672;10.014;2023-12-22T09:52:43;5.10;99.90
29363;DHT22;16349;53.672;10.014;2023-12-22T09:55:12;5.20;99.90
29363;DHT22;16349;53.672;10.014;2023-12-22T09:57:39;5.20;99.90
29363;DHT22;16349;53.672;10.014;2023-12-22T10:00:08;5.30;99.90
29363;DHT22;16349;53.672;10.014;2023-12-22T10:02:36;5.40;99.90
29363;DHT22;16349;53.672;10.014;2023-12-22T10:05:05;5.40;99.90
29363;DHT22;16349;53.672;10.014;2023-12-22T10:07:33;5.40;99.90
29363;DHT22;16349;53.672;10.014;2023-12-22T10:10:03;5.40;99.90
29363;DHT22;16349;53.672;10.014;2023-12-22T10:12:33;5.30;99.90
29363;DHT22;16349;53.672;10.014;2023-12-22T10:15:01;5.30;99.90
29363;DHT22;16349;53.672;10.014;2023-12-22T10:17:29;5.20;99.90
29363;DHT22;16349;53.672;10.014;2023-12-22T10:19:56;5.20;99.90
29363;DHT22;16349;53.672;10.014;2023-12-22T10:22:24;5.20;99.90
29363;DHT22;16349;53.672;10.014;2023-12-22T10:24:51;5.20;99.90
29363;DHT22;16349;53.672;10.014;2023-12-22T10:27:19;5.20;99.90
29363;DHT22;16349;53.672;10.014;2023-12-22T10:29:48;5.20;99.90
29363;DHT22;16349;53.672;10.014;2023-12-22T10:32:15;5.30;99.90
29363;DHT22;16349;53.672;10.014;2023-12-22T10:34:42;5.30;99.90
29363;DHT22;16349;53.672;10.014;2023-12-22T10:37:10;5.30;99.90
29363;DHT22;16349;53.672;10.014;2023-12-22T10:39:39;5.30;99.90
29363;DHT22;16349;53.672;10.014;2023-12-22T10:42:07;5.30;99.90
29363;DHT22;16349;53.672;10.014;2023-12-22T10:44:34;5.30;99.90
29363;DHT22;16349;53.672;10.014;2023-12-22T10:47:01;5.30;99.90
29363;DHT22;16349;53.672;10.014;2023-12-22T10:49:30;5.30;99.90
29363;DHT22;16349;53.672;10.014;2023-12-22T10:51:57;5.40;99.90
29363;DHT22;16349;53.672;10.014;2023-12-22T10:54:24;5.40;99.90
29363;DHT22;16349;53.672;10.014;2023-12-22T10:56:52;5.40;99.90
29363;DHT22;16349;53.672;10.014;2023-12-22T10:59:22;5.40;99.90
29363;DHT22;16349;53.672;10.014;2023-12-22T11:01:51;5.40;99.90
29363;DHT22;16349;53.672;10.014;2023-12-22T11:04:20;5.40;99.90
29363;DHT22;16349;53.672;10.014;2023-12-22T11:06:49;5.40;99.90
29363;DHT22;16349;53.672;10.014;2023-12-22T11:09:20;5.40;99.90
29363;DHT22;16349;53.672;10.014;2023-12-22T11:11:48;5.40;99.90
29363;DHT22;16349;53.672;10.014;2023-12-22T11:14:17;5.40;99.90
29363;DHT22;16349;53.672;10.014;2023-12-22T11:16:47;5.30;99.90
29363;DHT22;16349;53.672;10.014;2023-12-22T11:19:14;5.30;99.90
29363;DHT22;16349;53.672;10.014;2023-12-22T11:21:41;5.30;99.90
29363;DHT22;16349;53.672;10.014;2023-12-22T11:24:10;5.50;99.90
29363;DHT22;16349;53.672;10.014;2023-12-22T11:26:38;5.50;99.90
29363;DHT22;16349;53.672;10.014;2023-12-22T11:29:09;5.60;99.90
29363;DHT22;16349;53.672;10.014;2023-12-22T11:31:37;5.60;99.90
29363;DHT22;16349;53.672;10.014;2023-12-22T11:34:05;5.60;99.90
29363;DHT22;16349;53.672;10.014;2023-12-22T11:36:34;5.60;99.90
29363;DHT22;16349;53.672;10.014;2023-12-22T11:39:02;5.60;99.90
29363;DHT22;16349;53.672;10.014;2023-12-22T11:41:33;5.60;99.90
29363;DHT22;16349;53.672;10.014;2023-12-22T11:44:01;5.50;99.90
29363;DHT22;16349;53.672;10.014;2023-12-22T11:46:30;5.50;99.90
29363;DHT22;16349;53.672;10.014;2023-12-22T11:49:00;5.50;99.90
29363;DHT22;16349;53.672;10.014;2023-12-22T11:51:32;5.40;99.90
29363;DHT22;16349;53.672;10.014;2023-12-22T11:54:00;5.40;99.90
29363;DHT22;16349;53.672;10.014;2023-12-22T11:56:28;5.40;99.90
29363;DHT22;16349;53.672;10.014;2023-12-22T11:58:55;5.40;99.90
29363;DHT22;16349;53.672;10.014;2023-12-22T12:01:25;5.40;99.90
29363;DHT22;16349;53.672;10.014;2023-12-22T12:03:55;5.40;99.90
29363;DHT22;16349;53.672;10.014;2023-12-22T12:06:32;5.40;99.90
29363;DHT22;16349;53.672;10.014;2023-12-22T12:09:00;5.40;99.90
29363;DHT22;16349;53.672;10.014;2023-12-22T12:14:31;5.40;99.90
29363;DHT22;16349;53.672;10.014;2023-12-22T12:17:05;5.50;99.90
29363;DHT22;16349;53.672;10.014;2023-12-22T12:19:34;5.50;99.90
29363;DHT22;16349;53.672;10.014;2023-12-22T12:22:03;5.50;99.90
29363;DHT22;16349;53.672;10.014;2023-12-22T12:24:30;5.50;99.90
29363;DHT22;16349;53.672;10.014;2023-12-22T12:26:57;5.50;99.90
29363;DHT22;16349;53.672;10.014;2023-12-22T12:29:24;5.60;99.90
29363;DHT22;16349;53.672;10.014;2023-12-22T12:31:51;5.60;99.90
29363;DHT22;16349;53.672;10.014;2023-12-22T12:34:18;5.60;99.90
29363;DHT22;16349;53.672;10.014;2023-12-22T12:36:46;5.60;99.90
29363;DHT22;16349;53.672;10.014;2023-12-22T12:39:15;5.60;99.90
29363;DHT22;16349;53.672;10.014;2023-12-22T12:41:47;5.60;99.90
29363;DHT22;16349;53.672;10.014;2023-12-22T12:44:17;5.60;99.90
29363;DHT22;16349;53.672;10.014;2023-12-22T12:46:45;5.60;99.90
29363;DHT22;16349;53.672;10.014;2023-12-22T12:49:12;5.60;99.90
29363;DHT22;16349;53.672;10.014;2023-12-22T12:51:43;5.60;99.90
29363;DHT22;16349;53.672;10.014;2023-12-22T12:54:11;5.50;99.90
29363;DHT22;16349;53.672;10.014;2023-12-22T12:56:41;5.40;99.90
29363;DHT22;16349;53.672;10.014;2023-12-22T12:59:08;5.30;99.90
29363;DHT22;16349;53.672;10.014;2023-12-22T13:01:38;5.20;99.90
29363;DHT22;16349;53.672;10.014;2023-12-22T13:04:05;5.10;99.90
29363;DHT22;16349;53.672;10.014;2023-12-22T13:06:32;5.10;99.90
29363;DHT22;16349;53.672;10.014;2023-12-22T13:08:59;5.10;99.90
29363;DHT22;16349;53.672;10.014;2023-12-22T13:11:28;5.10;99.90
29363;DHT22;16349;53.672;10.014;2023-12-22T13:13:57;5.00;99.90
29363;DHT22;16349;53.672;10.014;2023-12-22T13:16:25;5.00;99.90
29363;DHT22;16349;53.672;10.014;2023-12-22T13:18:55;5.00;99.90
29363;DHT22;16349;53.672;10.014;2023-12-22T13:21:23;4.90;99.90
29363;DHT22;16349;53.672;10.014;2023-12-22T13:24:08;4.90;99.90
29363;DHT22;16349;53.672;10.014;2023-12-22T13:26:35;4.90;99.90
29363;DHT22;16349;53.672;10.014;2023-12-22T13:29:03;4.90;99.90
29363;DHT22;16349;53.672;10.014;2023-12-22T13:31:30;4.90;99.90
29363;DHT22;16349;53.672;10.014;2023-12-22T13:33:58;5.00;99.90
29363;DHT22;16349;53.672;10.014;2023-12-22T13:36:25;4.90;99.90
29363;DHT22;16349;53.672;10.014;2023-12-22T13:38:52;4.80;99.90
29363;DHT22;16349;53.672;10.014;2023-12-22T13:41:19;4.70;99.90
29363;DHT22;16349;53.672;10.014;2023-12-22T13:43:46;4.70;99.90
29363;DHT22;16349;53.672;10.014;2023-12-22T13:46:14;4.70;99.90
29363;DHT22;16349;53.672;10.014;2023-12-22T13:48:41;4.60;99.90
29363;DHT22;16349;53.672;10.014;2023-12-22T13:51:08;4.60;99.90
29363;DHT22;16349;53.672;10.014;2023-12-22T13:53:46;4.60;99.90
29363;DHT22;16349;53.672;10.014;2023-12-22T13:56:13;4.60;99.90
29363;DHT22;16349;53.672;10.014;2023-12-22T13:58:43;4.60;99.90
29363;DHT22;16349;53.672;10.014;2023-12-22T14:01:14;4.60;99.90
29363;DHT22;16349;53.672;10.014;2023-12-22T14:03:43;4.60;99.90
29363;DHT22;16349;53.672;10.014;2023-12-22T14:06:10;4.60;99.90
29363;DHT22;16349;53.672;10.014;2023-12-22T14:08:39;4.60;99.90
29363;DHT22;16349;53.672;10.014;2023-12-22T14:11:07;4.70;99.90
29363;DHT22;16349;53.672;10.014;2023-12-22T14:13:34;4.70;99.90
29363;DHT22;16349;53.672;10.014;2023-12-22T14:16:05;4.70;99.90
29363;DHT22;16349;53.672;10.014;2023-12-22T14:18:33;4.70;99.90
29363;DHT22;16349;53.672;10.014;2023-12-22T14:21:00;4.80;99.90
29363;DHT22;16349;53.672;10.014;2023-12-22T14:23:27;4.80;99.90
29363;DHT22;16349;53.672;10.014;2023-12-22T14:25:53;4.80;99.90
29363;DHT22;16349;53.672;10.014;2023-12-22T14:28:20;4.80;99.90
29363;DHT22;16349;53.672;10.014;2023-12-22T14:30:47;4.80;99.90
29363;DHT22;16349;53.672;10.014;2023-12-22T14:33:15;4.80;99.90
29363;DHT22;16349;53.672;10.014;2023-12-22T14:35:43;4.90;99.90
29363;DHT22;16349;53.672;10.014;2023-12-22T14:38:10;4.80;99.90
29363;DHT22;16349;53.672;10.014;2023-12-22T14:40:36;4.90;99.90
29363;DHT22;16349;53.672;10.014;2023-12-22T14:43:03;4.90;99.90
29363;DHT22;16349;53.672;10.014;2023-12-22T14:45:30;4.90;99.90
29363;DHT22;16349;53.672;10.014;2023-12-22T14:47:57;4.90;99.90
29363;DHT22;16349;53.672;10.014;2023-12-22T14:50:24;4.90;99.90
29363;DHT22;16349;53.672;10.014;2023-12-22T14:52:52;4.90;99.90
29363;DHT22;16349;53.672;10.014;2023-12-22T14:55:18;4.90;99.90
29363;DHT22;16349;53.672;10.014;2023-12-22T14:57:45;4.90;99.90
29363;DHT22;16349;53.672;10.014;2023-12-22T15:00:13;4.90;99.90
29363;DHT22;16349;53.672;10.014;2023-12-22T15:02:40;4.90;99.90
29363;DHT22;16349;53.672;10.014;2023-12-22T15:05:07;4.90;99.90
29363;DHT22;16349;53.672;10.014;2023-12-22T15:07:34;5.00;99.90
29363;DHT22;16349;53.672;10.014;2023-12-22T15:10:03;4.90;99.90
29363;DHT22;16349;53.672;10.014;2023-12-22T15:12:31;4.90;99.90
29363;DHT22;16349;53.672;10.014;2023-12-22T15:15:02;4.90;99.90
29363;DHT22;16349;53.672;10.014;2023-12-22T15:17:31;4.90;99.90
29363;DHT22;16349;53.672;10.014;2023-12-22T15:19:58;4.90;99.90
29363;DHT22;16349;53.672;10.014;2023-12-22T15:22:24;4.90;99.90
29363;DHT22;16349;53.672;10.014;2023-12-22T15:24:51;4.90;99.90
29363;DHT22;16349;53.672;10.014;2023-12-22T15:27:19;4.80;99.90
29363;DHT22;16349;53.672;10.014;2023-12-22T15:29:46;4.80;99.90
29363;DHT22;16349;53.672;10.014;2023-12-22T15:32:13;4.90;99.90
29363;DHT22;16349;53.672;10.014;2023-12-22T15:34:41;4.80;99.90
29363;DHT22;16349;53.672;10.014;2023-12-22T15:37:08;4.90;99.90